createdAt,value
2018-06-09T00:00:54.649Z,65.84
2018-06-09T00:03:24.229Z,65.82
2018-06-09T00:05:53.689Z,65.26
2018-06-09T00:08:23.444Z,65.09
2018-06-09T00:10:52.771Z,65.66
2018-06-09T00:13:21.992Z,65.95
2018-06-09T00:15:51.827Z,65.25
2018-06-09T00:18:21.040Z,64.93
2018-06-09T00:20:50.341Z,64.77
2018-06-09T00:23:19.672Z,64.57
2018-06-09T00:25:48.827Z,64.60
2018-06-09T00:28:18.004Z,64.88
2018-06-09T00:30:47.794Z,64.54
2018-06-09T00:33:16.987Z,65.30
2018-06-09T00:35:46.340Z,64.79
2018-06-09T00:38:15.567Z,64.89
2018-06-09T00:40:44.760Z,64.41
2018-06-09T00:43:14.072Z,64.52
2018-06-09T00:45:43.341Z,64.16
2018-06-09T00:48:12.734Z,64.59
2018-06-09T00:50:42.006Z,64.72
2018-06-09T00:53:11.539Z,64.11
2018-06-09T00:55:40.811Z,64.46
2018-06-09T00:58:10.099Z,64.19
2018-06-09T01:00:39.368Z,63.80
2018-06-09T01:03:08.699Z,63.49
2018-06-09T01:05:38.044Z,63.62
2018-06-09T01:08:07.522Z,63.47
2018-06-09T01:10:36.881Z,63.46
2018-06-09T01:13:06.416Z,62.65
2018-06-09T01:15:35.989Z,63.27
2018-06-09T01:18:05.399Z,62.54
2018-06-09T01:20:35.067Z,62.87
2018-06-09T01:23:04.729Z,63.00
2018-06-09T01:25:34.327Z,62.82
2018-06-09T01:28:04.032Z,62.95
2018-06-09T01:30:33.982Z,63.43
2018-06-09T01:33:03.581Z,62.82
2018-06-09T01:35:33.427Z,62.14
2018-06-09T01:38:05.021Z,62.16
2018-06-09T01:40:34.797Z,62.56
2018-06-09T01:43:04.132Z,62.81
2018-06-09T01:45:34.120Z,62.23
2018-06-09T01:48:03.745Z,61.70
2018-06-09T01:50:33.289Z,62.20
2018-06-09T01:53:02.842Z,62.43
2018-06-09T01:55:32.313Z,61.60
2018-06-09T01:58:01.742Z,62.30
2018-06-09T02:00:31.552Z,62.49
2018-06-09T02:03:01.088Z,61.70
2018-06-09T02:05:30.615Z,61.91
2018-06-09T02:08:01.010Z,61.45
2018-06-09T02:10:31.055Z,61.79
2018-06-09T02:13:00.583Z,62.64
2018-06-09T02:15:31.019Z,62.89
2018-06-09T02:18:00.854Z,62.29
2018-06-09T02:20:30.644Z,62.09
2018-06-09T02:23:00.249Z,62.17
2018-06-09T02:25:29.826Z,62.41
2018-06-09T02:27:59.712Z,62.71
2018-06-09T02:30:29.678Z,61.97
2018-06-09T02:32:59.241Z,62.35
2018-06-09T02:35:29.013Z,61.94
2018-06-09T02:37:59.481Z,62.44
2018-06-09T02:40:28.882Z,62.50
2018-06-09T02:42:58.739Z,61.99
2018-06-09T02:45:28.710Z,61.70
2018-06-09T02:47:58.345Z,61.49
2018-06-09T02:50:27.732Z,61.55
2018-06-09T02:52:57.273Z,61.09
2018-06-09T02:55:26.953Z,61.09
2018-06-09T02:57:56.405Z,60.49
2018-06-09T03:00:28.047Z,59.75
2018-06-09T03:02:57.443Z,59.64
2018-06-09T03:05:26.845Z,59.92
2018-06-09T03:07:56.294Z,59.08
2018-06-09T03:10:25.661Z,59.46
2018-06-09T03:12:55.098Z,55.93
2018-06-09T03:15:24.777Z,58.87
2018-06-09T03:17:54.173Z,56.73
2018-06-09T03:20:23.546Z,56.75
2018-06-09T03:22:53.503Z,54.57
2018-06-09T03:25:22.762Z,54.17
2018-06-09T03:27:52.164Z,53.48
2018-06-09T03:30:21.618Z,54.50
2018-06-09T03:32:50.963Z,55.00
2018-06-09T03:35:20.158Z,55.56
2018-06-09T03:37:49.912Z,54.46
2018-06-09T03:40:19.107Z,54.84
2018-06-09T03:42:48.405Z,54.81
2018-06-09T03:45:18.029Z,55.17
2018-06-09T03:47:47.248Z,54.48
2018-06-09T03:50:17.161Z,53.99
2018-06-09T03:52:46.797Z,53.53
2018-06-09T03:55:15.967Z,54.30
2018-06-09T03:57:45.263Z,54.25
2018-06-09T04:00:14.487Z,53.54
2018-06-09T04:02:43.806Z,53.19
2018-06-09T04:05:12.950Z,53.18
2018-06-09T04:07:42.369Z,52.90
2018-06-09T04:10:11.623Z,53.40
2018-06-09T04:12:41.004Z,53.07
2018-06-09T04:15:10.201Z,52.78
2018-06-09T04:17:39.424Z,51.97
2018-06-09T04:20:08.610Z,52.68
2018-06-09T04:22:37.859Z,52.72
2018-06-09T04:25:07.150Z,52.47
2018-06-09T04:27:36.370Z,52.66
2018-06-09T04:30:05.697Z,52.37
2018-06-09T04:32:35.002Z,52.04
2018-06-09T04:35:04.377Z,51.67
2018-06-09T04:37:34.243Z,52.04
2018-06-09T04:40:03.744Z,52.26
2018-06-09T04:42:33.674Z,51.68
2018-06-09T04:45:03.351Z,50.91
2018-06-09T04:47:32.982Z,49.84
2018-06-09T04:50:02.273Z,49.54
2018-06-09T04:52:32.693Z,51.89
2018-06-09T04:55:02.069Z,49.97
2018-06-09T04:57:31.660Z,51.89
2018-06-09T05:00:01.571Z,54.45
2018-06-09T05:02:30.944Z,56.74
2018-06-09T05:05:00.388Z,58.05
2018-06-09T05:07:30.422Z,58.71
2018-06-09T05:09:59.822Z,57.73
2018-06-09T05:12:29.356Z,57.31
2018-06-09T05:14:59.182Z,57.86
2018-06-09T05:17:28.719Z,58.20
2018-06-09T05:19:58.839Z,58.80
2018-06-09T05:22:29.482Z,58.23
2018-06-09T05:24:58.946Z,54.71
2018-06-09T05:27:28.497Z,52.30
2018-06-09T05:29:58.323Z,52.60
2018-06-09T05:32:27.650Z,50.69
2018-06-09T05:34:56.977Z,47.89
2018-06-09T05:37:26.392Z,45.82
2018-06-09T05:39:55.771Z,41.99
2018-06-09T05:42:25.304Z,40.96
2018-06-09T05:44:54.885Z,39.93
2018-06-09T05:47:24.386Z,40.45
2018-06-09T05:49:54.024Z,41.02
2018-06-09T05:52:23.853Z,40.68
2018-06-09T05:54:53.299Z,40.91
2018-06-09T05:57:22.747Z,41.68
2018-06-09T05:59:52.079Z,40.70
2018-06-09T06:02:21.459Z,39.90
2018-06-09T06:04:50.728Z,40.60
2018-06-09T06:07:20.020Z,38.88
2018-06-09T06:09:49.257Z,38.73
2018-06-09T06:12:18.607Z,39.36
2018-06-09T06:14:48.111Z,37.85
2018-06-09T06:17:17.819Z,37.44
2018-06-09T06:19:47.170Z,37.70
2018-06-09T06:22:16.449Z,38.36
2018-06-09T06:24:45.764Z,37.92
2018-06-09T06:27:15.044Z,38.76
2018-06-09T06:29:44.485Z,39.32
2018-06-09T06:32:13.863Z,39.67
2018-06-09T06:34:43.108Z,39.67
2018-06-09T06:37:12.711Z,40.65
2018-06-09T06:39:42.031Z,40.96
2018-06-09T06:42:11.276Z,40.26
2018-06-09T06:44:40.631Z,39.71
2018-06-09T06:47:10.042Z,40.45
2018-06-09T06:49:39.302Z,39.90
2018-06-09T06:52:08.629Z,38.95
2018-06-09T06:54:37.983Z,39.54
2018-06-09T06:57:07.348Z,39.14
2018-06-09T06:59:36.878Z,37.73
2018-06-09T07:02:06.264Z,38.17
2018-06-09T07:04:35.795Z,38.18
2018-06-09T07:07:05.511Z,39.52
2018-06-09T07:09:34.977Z,40.45
2018-06-09T07:12:04.425Z,41.67
2018-06-09T07:14:33.779Z,41.88
2018-06-09T07:17:03.859Z,42.25
2018-06-09T07:19:33.282Z,42.32
2018-06-09T07:22:02.956Z,44.14
2018-06-09T07:24:32.868Z,42.78
2018-06-09T07:27:02.420Z,42.66
2018-06-09T07:29:31.990Z,42.25
2018-06-09T07:32:01.710Z,40.94
2018-06-09T07:34:31.490Z,40.59
2018-06-09T07:37:01.726Z,41.62
2018-06-09T07:39:31.312Z,39.81
2018-06-09T07:42:01.479Z,39.86
2018-06-09T07:44:34.128Z,39.92
2018-06-09T07:47:04.062Z,39.14
2018-06-09T07:49:33.654Z,35.80
2018-06-09T07:52:03.608Z,36.24
2018-06-09T07:54:33.288Z,35.53
2018-06-09T07:57:02.928Z,34.56
2018-06-09T07:59:33.229Z,33.81
2018-06-09T08:02:02.703Z,33.46
2018-06-09T08:04:32.131Z,34.57
2018-06-09T08:07:01.627Z,34.64
2018-06-09T08:09:31.130Z,36.23
2018-06-09T08:12:01.141Z,35.20
2018-06-09T08:14:30.620Z,35.35
2018-06-09T08:17:00.432Z,34.01
2018-06-09T08:19:30.129Z,32.75
2018-06-09T08:22:00.098Z,34.38
2018-06-09T08:24:30.293Z,33.73
2018-06-09T08:27:00.514Z,34.87
2018-06-09T08:29:30.052Z,35.86
2018-06-09T08:32:00.267Z,35.40
2018-06-09T08:34:29.949Z,34.95
2018-06-09T08:36:59.928Z,34.42
2018-06-09T08:39:29.828Z,33.09
2018-06-09T08:42:00.374Z,31.06
2018-06-09T08:44:29.859Z,33.86
2018-06-09T08:47:00.359Z,32.96
2018-06-09T08:49:30.171Z,35.69
2018-06-09T08:51:59.983Z,36.74
2018-06-09T08:54:29.768Z,37.93
2018-06-09T08:56:59.495Z,37.34
2018-06-09T08:59:29.115Z,38.37
2018-06-09T09:01:58.529Z,36.69
2018-06-09T09:04:28.213Z,36.34
2018-06-09T09:06:58.042Z,37.83
2018-06-09T09:09:27.690Z,37.27
2018-06-09T09:11:57.816Z,37.97
2018-06-09T09:14:27.324Z,37.82
2018-06-09T09:16:56.853Z,38.01
2018-06-09T09:19:26.839Z,34.91
2018-06-09T09:21:56.737Z,35.68
2018-06-09T09:24:26.427Z,38.21
2018-06-09T09:26:56.571Z,36.65
2018-06-09T09:29:25.947Z,36.80
2018-06-09T09:31:55.455Z,37.68
2018-06-09T09:34:25.534Z,38.61
2018-06-09T09:36:55.302Z,37.41
2018-06-09T09:39:25.261Z,38.08
2018-06-09T09:41:55.384Z,38.71
2018-06-09T09:44:24.825Z,38.54
2018-06-09T09:46:54.228Z,37.33
2018-06-09T09:49:24.436Z,36.09
2018-06-09T09:51:54.053Z,36.06
2018-06-09T09:54:23.700Z,37.92
2018-06-09T09:56:53.159Z,40.12
2018-06-09T09:59:22.777Z,41.25
2018-06-09T10:01:52.141Z,40.75
2018-06-09T10:04:21.495Z,41.26
2018-06-09T10:06:50.880Z,41.09
2018-06-09T10:09:20.437Z,42.30
2018-06-09T10:11:50.337Z,42.28
2018-06-09T10:14:21.465Z,43.59
2018-06-09T10:16:51.074Z,43.36
2018-06-09T10:19:20.892Z,44.10
2018-06-09T10:21:50.188Z,45.99
2018-06-09T10:24:19.460Z,46.54
2018-06-09T10:26:48.791Z,46.68
2018-06-09T10:29:23.872Z,46.41
2018-06-09T10:31:55.201Z,45.90
2018-06-09T10:34:25.341Z,46.56
2018-06-09T10:36:55.144Z,45.81
2018-06-09T10:39:24.741Z,46.36
2018-06-09T10:41:54.463Z,47.92
2018-06-09T10:44:25.148Z,48.06
2018-06-09T10:46:54.639Z,48.41
2018-06-09T10:49:24.391Z,49.23
2018-06-09T10:51:53.976Z,48.48
2018-06-09T10:54:24.554Z,48.38
2018-06-09T10:56:54.212Z,48.59
2018-06-09T10:59:24.155Z,48.72
2018-06-09T11:01:53.693Z,48.25
2018-06-09T11:04:23.606Z,49.48
2018-06-09T11:06:53.352Z,50.02
2018-06-09T11:09:22.764Z,51.06
2018-06-09T11:11:53.191Z,51.71
2018-06-09T11:14:22.501Z,50.71
2018-06-09T11:16:53.065Z,50.41
2018-06-09T11:19:22.447Z,50.70
2018-06-09T11:21:51.783Z,51.80
2018-06-09T11:24:21.126Z,51.57
2018-06-09T11:26:50.521Z,52.52
2018-06-09T11:29:19.913Z,51.60
2018-06-09T11:31:49.337Z,52.61
2018-06-09T11:34:18.634Z,52.56
2018-06-09T11:36:48.036Z,51.74
2018-06-09T11:39:17.379Z,52.46
2018-06-09T11:41:47.052Z,51.49
2018-06-09T11:44:16.434Z,52.45
2018-06-09T11:46:45.746Z,52.19
2018-06-09T11:49:15.171Z,52.30
2018-06-09T11:51:44.502Z,51.77
2018-06-09T11:54:13.774Z,52.36
2018-06-09T11:56:43.792Z,52.71
2018-06-09T11:59:13.077Z,52.52
2018-06-09T12:01:42.436Z,52.54
2018-06-09T12:04:11.898Z,52.02
2018-06-09T12:06:41.470Z,52.15
2018-06-09T12:09:10.829Z,53.68
2018-06-09T12:11:40.149Z,53.78
2018-06-09T12:14:09.442Z,52.51
2018-06-09T12:16:38.984Z,51.61
2018-06-09T12:19:08.498Z,51.09
2018-06-09T12:21:37.853Z,51.19
2018-06-09T12:24:07.211Z,52.58
2018-06-09T12:26:36.724Z,54.05
2018-06-09T12:29:06.025Z,53.32
2018-06-09T12:31:35.525Z,53.77
2018-06-09T12:34:05.549Z,52.92
2018-06-09T12:36:34.846Z,52.99
2018-06-09T12:39:05.821Z,51.52
2018-06-09T12:41:35.464Z,52.66
2018-06-09T12:44:04.823Z,53.04
2018-06-09T12:46:35.045Z,53.53
2018-06-09T12:49:05.423Z,52.37
2018-06-09T12:51:35.073Z,52.87
2018-06-09T12:54:04.891Z,51.87
2018-06-09T12:56:35.323Z,50.69
2018-06-09T12:59:04.880Z,48.21
2018-06-09T13:01:34.242Z,47.75
2018-06-09T13:04:03.799Z,48.46
2018-06-09T13:06:36.977Z,48.36
2018-06-09T13:09:11.627Z,47.26
2018-06-09T13:11:42.078Z,47.94
2018-06-09T13:14:12.367Z,47.16
2018-06-09T13:16:43.661Z,46.90
2018-06-09T13:19:16.705Z,45.73
2018-06-09T13:21:49.829Z,46.02
2018-06-09T13:24:19.584Z,45.73
2018-06-09T13:26:51.913Z,45.15
2018-06-09T13:29:21.666Z,46.64
2018-06-09T13:31:50.881Z,45.08
2018-06-09T13:34:20.085Z,43.78
2018-06-09T13:36:53.110Z,44.51
2018-06-09T13:39:22.789Z,42.91
2018-06-09T13:41:52.237Z,41.99
2018-06-09T13:44:21.600Z,39.31
2018-06-09T13:46:50.914Z,40.88
2018-06-09T13:49:21.533Z,38.35
2018-06-09T13:51:52.377Z,38.28
2018-06-09T13:54:22.263Z,37.11
2018-06-09T13:56:52.297Z,38.16
2018-06-09T13:59:23.001Z,37.80
2018-06-09T14:01:54.493Z,38.27
2018-06-09T14:04:24.676Z,39.58
2018-06-09T14:06:54.472Z,40.41
2018-06-09T14:09:24.413Z,41.86
2018-06-09T14:11:54.259Z,43.04
2018-06-09T14:14:24.305Z,45.04
2018-06-09T14:16:54.930Z,45.73
2018-06-09T14:19:26.860Z,46.80
2018-06-09T14:21:56.534Z,47.12
2018-06-09T14:24:27.608Z,48.00
2018-06-09T14:26:57.984Z,47.26
2018-06-09T14:29:27.448Z,48.29
2018-06-09T14:31:57.166Z,47.99
2018-06-09T14:34:26.824Z,48.91
2018-06-09T14:37:00.763Z,49.61
2018-06-09T14:39:30.757Z,49.69
2018-06-09T14:42:01.887Z,50.36
2018-06-09T14:44:31.459Z,48.80
2018-06-09T14:47:01.287Z,49.66
2018-06-09T14:49:31.499Z,50.10
2018-06-09T14:52:01.823Z,50.71
2018-06-09T14:54:31.749Z,50.95
2018-06-09T14:57:01.625Z,51.41
2018-06-09T14:59:31.942Z,52.03
2018-06-09T15:02:02.270Z,51.13
2018-06-09T15:04:31.984Z,50.46
2018-06-09T15:07:02.142Z,51.24
2018-06-09T15:09:32.204Z,50.23
2018-06-09T15:12:02.163Z,49.54
2018-06-09T15:14:31.912Z,48.00
2018-06-09T15:17:01.660Z,46.00
2018-06-09T15:19:31.115Z,46.05
2018-06-09T15:22:01.003Z,46.74
2018-06-09T15:24:30.510Z,45.97
2018-06-09T15:26:59.952Z,44.65
2018-06-09T15:29:29.659Z,45.23
2018-06-09T15:31:59.185Z,44.82
2018-06-09T15:34:28.872Z,45.11
2018-06-09T15:36:58.480Z,44.72
2018-06-09T15:39:29.361Z,44.35
2018-06-09T15:41:59.069Z,43.51
2018-06-09T15:44:28.736Z,42.01
2018-06-09T15:46:58.400Z,41.32
2018-06-09T15:49:28.686Z,42.60
2018-06-09T15:51:58.350Z,41.99
2018-06-09T15:54:28.378Z,41.21
2018-06-09T15:56:58.633Z,41.75
2018-06-09T15:59:28.045Z,39.83
2018-06-09T16:01:57.653Z,39.56
2018-06-09T16:04:27.159Z,39.87
2018-06-09T16:06:57.077Z,38.23
2018-06-09T16:09:26.755Z,37.99
2018-06-09T16:11:56.291Z,37.76
2018-06-09T16:14:26.752Z,38.27
2018-06-09T16:16:57.639Z,37.76
2018-06-09T16:19:28.100Z,36.29
2018-06-09T16:21:58.090Z,36.90
2018-06-09T16:24:28.425Z,36.61
2018-06-09T16:26:58.404Z,36.60
2018-06-09T16:29:27.921Z,36.71
2018-06-09T16:31:57.440Z,37.72
2018-06-09T16:34:27.420Z,38.81
2018-06-09T16:36:57.508Z,40.60
2018-06-09T16:39:27.764Z,41.09
2018-06-09T16:41:57.670Z,43.03
2018-06-09T16:44:27.363Z,43.25
2018-06-09T16:46:57.090Z,43.38
2018-06-09T16:49:27.100Z,44.21
2018-06-09T16:51:57.175Z,44.33
2018-06-09T16:54:27.253Z,44.43
2018-06-09T16:56:57.108Z,43.89
2018-06-09T16:59:26.645Z,43.49
2018-06-09T17:01:56.746Z,44.27
2018-06-09T17:04:28.693Z,45.00
2018-06-09T17:06:59.216Z,45.23
2018-06-09T17:09:29.296Z,44.74
2018-06-09T17:11:58.977Z,46.14
2018-06-09T17:14:29.085Z,46.71
2018-06-09T17:16:58.639Z,46.64
2018-06-09T17:19:28.241Z,44.61
2018-06-09T17:21:58.410Z,45.01
2018-06-09T17:24:28.112Z,43.86
2018-06-09T17:26:57.948Z,42.87
2018-06-09T17:29:27.837Z,43.71
2018-06-09T17:31:57.644Z,43.81
2018-06-09T17:34:27.313Z,43.18
2018-06-09T17:36:57.151Z,43.78
2018-06-09T17:39:27.045Z,44.59
2018-06-09T17:41:56.902Z,45.49
2018-06-09T17:44:26.813Z,45.70
2018-06-09T17:46:56.276Z,46.52
2018-06-09T17:49:25.928Z,47.15
2018-06-09T17:51:55.728Z,47.79
2018-06-09T17:54:26.754Z,47.57
2018-06-09T17:56:56.832Z,47.73
2018-06-09T17:59:26.411Z,48.29
2018-06-09T18:01:56.117Z,49.18
2018-06-09T18:04:26.907Z,49.71
2018-06-09T18:06:58.089Z,48.99
2018-06-09T18:09:28.041Z,49.88
2018-06-09T18:11:57.859Z,50.07
2018-06-09T18:14:28.046Z,49.54
2018-06-09T18:16:57.956Z,49.82
2018-06-09T18:19:27.635Z,49.74
2018-06-09T18:21:57.024Z,50.18
2018-06-09T18:24:26.537Z,50.30
2018-06-09T18:26:56.137Z,50.34
2018-06-09T18:29:25.648Z,50.44
2018-06-09T18:31:55.229Z,50.87
2018-06-09T18:34:25.155Z,50.37
2018-06-09T18:36:54.926Z,51.97
2018-06-09T18:39:25.146Z,51.35
2018-06-09T18:41:54.828Z,52.19
2018-06-09T18:44:24.318Z,52.97
2018-06-09T18:46:53.793Z,52.29
2018-06-09T18:49:23.105Z,53.51
2018-06-09T18:51:52.680Z,52.82
2018-06-09T18:54:22.365Z,53.83
2018-06-09T18:56:51.655Z,53.72
2018-06-09T18:59:20.909Z,54.45
2018-06-09T19:01:50.367Z,54.10
2018-06-09T19:04:19.672Z,54.33
2018-06-09T19:06:49.224Z,55.11
2018-06-09T19:09:18.531Z,55.83
2018-06-09T19:11:47.970Z,57.13
2018-06-09T19:14:17.280Z,57.91
2018-06-09T19:16:46.812Z,58.31
2018-06-09T19:19:16.102Z,58.59
2018-06-09T19:21:45.586Z,58.04
2018-06-09T19:24:14.912Z,57.82
2018-06-09T19:26:44.344Z,58.03
2018-06-09T19:29:13.977Z,58.33
2018-06-09T19:31:43.623Z,58.64
2018-06-09T19:34:13.130Z,58.33
2018-06-09T19:36:42.492Z,58.99
2018-06-09T19:39:11.795Z,58.44
2018-06-09T19:41:41.137Z,59.09
2018-06-09T19:44:10.605Z,59.92
2018-06-09T19:46:39.927Z,60.15
2018-06-09T19:49:09.232Z,59.43
2018-06-09T19:51:39.158Z,59.56
2018-06-09T19:54:08.539Z,60.50
2018-06-09T19:56:37.965Z,59.88
2018-06-09T19:59:07.828Z,60.66
2018-06-09T20:01:37.296Z,59.87
2018-06-09T20:04:06.604Z,60.17
2018-06-09T20:06:36.551Z,59.95
2018-06-09T20:09:08.015Z,60.41
2018-06-09T20:11:37.538Z,60.69
2018-06-09T20:14:07.498Z,59.93
2018-06-09T20:16:37.075Z,60.46
2018-06-09T20:19:06.809Z,60.90
2018-06-09T20:21:36.505Z,60.40
2018-06-09T20:24:06.633Z,61.15
2018-06-09T20:26:38.076Z,61.29
2018-06-09T20:29:08.247Z,61.71
2018-06-09T20:31:38.753Z,61.74
2018-06-09T20:34:08.547Z,61.61
2018-06-09T20:36:38.710Z,61.41
2018-06-09T20:39:08.382Z,61.53
2018-06-09T20:41:37.784Z,62.56
2018-06-09T20:44:07.375Z,62.73
2018-06-09T20:46:37.085Z,63.37
2018-06-09T20:49:06.851Z,63.20
2018-06-09T20:51:36.993Z,62.50
2018-06-09T20:54:06.507Z,63.57
2018-06-09T20:56:36.366Z,63.67
2018-06-09T20:59:06.004Z,63.47
2018-06-09T21:01:35.345Z,62.98
2018-06-09T21:04:05.190Z,63.10
2018-06-09T21:06:35.309Z,62.51
2018-06-09T21:09:10.422Z,63.52
2018-06-09T21:11:44.732Z,63.26
2018-06-09T21:14:18.365Z,63.34
2018-06-09T21:16:52.997Z,63.64
2018-06-09T21:19:27.603Z,63.00
2018-06-09T21:21:57.525Z,63.93
2018-06-09T21:24:27.615Z,63.79
2018-06-09T21:27:02.807Z,63.65
2018-06-09T21:29:34.263Z,63.10
2018-06-09T21:32:10.280Z,63.24
2018-06-09T21:34:57.087Z,63.28
2018-06-09T21:37:32.053Z,64.32
2018-06-09T21:40:05.285Z,63.63
2018-06-09T21:42:41.207Z,63.64
2018-06-09T21:45:12.174Z,63.98
2018-06-09T21:47:56.180Z,64.22
2018-06-09T21:50:28.704Z,64.15
2018-06-09T21:52:58.621Z,63.44
2018-06-09T21:55:28.275Z,63.25
2018-06-09T21:57:57.848Z,63.47
2018-06-09T22:00:27.957Z,64.32
2018-06-09T22:02:57.971Z,63.45
2018-06-09T22:05:28.346Z,63.92
2018-06-09T22:07:58.432Z,62.56
2018-06-09T22:10:28.249Z,63.45
2018-06-09T22:12:58.134Z,62.49
2018-06-09T22:15:28.471Z,62.06
2018-06-09T22:17:58.304Z,61.73
2018-06-09T22:20:27.912Z,62.32
2018-06-09T22:22:57.783Z,61.28
2018-06-09T22:25:32.992Z,61.32
2018-06-09T22:28:02.919Z,60.89
2018-06-09T22:30:32.667Z,60.14
2018-06-09T22:33:02.238Z,60.30
2018-06-09T22:35:31.884Z,59.73
2018-06-09T22:38:01.324Z,59.81
2018-06-09T22:40:30.909Z,60.07
2018-06-09T22:43:00.574Z,59.92
2018-06-09T22:45:30.480Z,60.29
2018-06-09T22:48:00.473Z,59.76
2018-06-09T22:50:30.701Z,59.42
2018-06-09T22:53:00.256Z,59.24
2018-06-09T22:55:29.749Z,59.83
2018-06-09T22:57:59.385Z,59.02
2018-06-09T23:00:37.912Z,59.29
2018-06-09T23:03:07.522Z,59.36
2018-06-09T23:05:37.013Z,58.74
2018-06-09T23:08:06.827Z,59.34
2018-06-09T23:10:36.269Z,58.93
2018-06-09T23:13:05.893Z,58.16
2018-06-09T23:15:35.561Z,58.83
2018-06-09T23:18:05.099Z,60.17
2018-06-09T23:20:34.678Z,60.35
2018-06-09T23:23:04.229Z,60.78
2018-06-09T23:25:34.144Z,62.13
2018-06-09T23:28:04.381Z,63.90
2018-06-09T23:30:33.995Z,64.21
2018-06-09T23:33:03.643Z,65.17
2018-06-09T23:35:33.102Z,65.52
2018-06-09T23:38:03.222Z,65.30
2018-06-09T23:40:33.054Z,64.72
2018-06-09T23:43:02.504Z,63.87
2018-06-09T23:45:32.015Z,64.56
2018-06-09T23:48:01.718Z,65.06
2018-06-09T23:50:31.259Z,67.05
2018-06-09T23:53:00.811Z,67.31
2018-06-09T23:55:30.336Z,68.10
2018-06-09T23:57:59.904Z,68.44
